sensor_id;sensor_type;location;lat;lon;timestamp;temperature;humidity
22471;DHT22;11402;51.374;6.594;2023-06-26T00:02:18;21.80;99.90
22471;DHT22;11402;51.374;6.594;2023-06-26T00:04:43;21.80;99.90
22471;DHT22;11402;51.374;6.594;2023-06-26T00:07:10;21.80;99.90
22471;DHT22;11402;51.374;6.594;2023-06-26T00:09:35;21.80;99.90
22471;DHT22;11402;51.374;6.594;2023-06-26T00:12:01;21.80;99.90
22471;DHT22;11402;51.374;6.594;2023-06-26T00:14:27;21.80;99.90
22471;DHT22;11402;51.374;6.594;2023-06-26T00:16:52;21.90;99.90
22471;DHT22;11402;51.374;6.594;2023-06-26T00:19:18;21.70;99.90
22471;DHT22;11402;51.374;6.594;2023-06-26T00:21:44;21.70;99.90
22471;DHT22;11402;51.374;6.594;2023-06-26T00:24:16;21.60;99.90
22471;DHT22;11402;51.374;6.594;2023-06-26T00:26:42;21.60;99.90
22471;DHT22;11402;51.374;6.594;2023-06-26T00:29:07;21.60;99.90
22471;DHT22;11402;51.374;6.594;2023-06-26T00:31:33;21.50;99.90
22471;DHT22;11402;51.374;6.594;2023-06-26T00:34:00;21.50;99.90
22471;DHT22;11402;51.374;6.594;2023-06-26T00:36:26;21.40;99.90
22471;DHT22;11402;51.374;6.594;2023-06-26T00:38:53;21.40;99.90
22471;DHT22;11402;51.374;6.594;2023-06-26T00:41:19;21.30;99.90
22471;DHT22;11402;51.374;6.594;2023-06-26T00:43:45;21.40;99.90
22471;DHT22;11402;51.374;6.594;2023-06-26T00:46:13;21.40;99.90
22471;DHT22;11402;51.374;6.594;2023-06-26T00:48:41;21.30;99.90
22471;DHT22;11402;51.374;6.594;2023-06-26T00:51:08;21.20;99.90
22471;DHT22;11402;51.374;6.594;2023-06-26T00:53:34;21.30;99.90
22471;DHT22;11402;51.374;6.594;2023-06-26T00:56:01;21.30;99.90
22471;DHT22;11402;51.374;6.594;2023-06-26T00:58:27;21.30;99.90
22471;DHT22;11402;51.374;6.594;2023-06-26T01:00:53;21.30;99.90
22471;DHT22;11402;51.374;6.594;2023-06-26T01:03:23;21.20;99.90
22471;DHT22;11402;51.374;6.594;2023-06-26T01:05:50;21.10;99.90
22471;DHT22;11402;51.374;6.594;2023-06-26T01:08:17;21.10;99.90
22471;DHT22;11402;51.374;6.594;2023-06-26T01:10:44;21.10;99.90
22471;DHT22;11402;51.374;6.594;2023-06-26T01:13:11;21.00;99.90
22471;DHT22;11402;51.374;6.594;2023-06-26T01:15:37;21.10;99.90
22471;DHT22;11402;51.374;6.594;2023-06-26T01:18:03;21.10;99.90
22471;DHT22;11402;51.374;6.594;2023-06-26T01:20:36;21.00;99.90
22471;DHT22;11402;51.374;6.594;2023-06-26T01:23:22;21.00;99.90
22471;DHT22;11402;51.374;6.594;2023-06-26T01:26:19;20.90;99.90
22471;DHT22;11402;51.374;6.594;2023-06-26T01:28:46;21.00;99.90
22471;DHT22;11402;51.374;6.594;2023-06-26T01:31:12;21.00;99.90
22471;DHT22;11402;51.374;6.594;2023-06-26T01:33:40;20.90;99.90
22471;DHT22;11402;51.374;6.594;2023-06-26T01:36:07;20.90;99.90
22471;DHT22;11402;51.374;6.594;2023-06-26T01:38:32;20.90;99.90
22471;DHT22;11402;51.374;6.594;2023-06-26T01:41:00;20.90;99.90
22471;DHT22;11402;51.374;6.594;2023-06-26T01:43:56;21.00;99.90
22471;DHT22;11402;51.374;6.594;2023-06-26T01:55:03;20.80;99.90
22471;DHT22;11402;51.374;6.594;2023-06-26T01:57:31;20.70;99.90
22471;DHT22;11402;51.374;6.594;2023-06-26T01:59:58;20.90;99.90
22471;DHT22;11402;51.374;6.594;2023-06-26T02:02:24;20.80;99.90
22471;DHT22;11402;51.374;6.594;2023-06-26T02:04:50;20.80;99.90
22471;DHT22;11402;51.374;6.594;2023-06-26T02:07:16;20.80;99.90
22471;DHT22;11402;51.374;6.594;2023-06-26T02:09:41;20.80;99.90
22471;DHT22;11402;51.374;6.594;2023-06-26T02:12:07;20.80;99.90
22471;DHT22;11402;51.374;6.594;2023-06-26T02:14:33;20.80;99.90
22471;DHT22;11402;51.374;6.594;2023-06-26T02:16:59;20.70;99.90
22471;DHT22;11402;51.374;6.594;2023-06-26T02:19:26;20.80;99.90
22471;DHT22;11402;51.374;6.594;2023-06-26T02:21:56;20.80;99.90
22471;DHT22;11402;51.374;6.594;2023-06-26T02:24:21;20.90;99.90
22471;DHT22;11402;51.374;6.594;2023-06-26T02:26:47;20.80;99.90
22471;DHT22;11402;51.374;6.594;2023-06-26T02:29:14;20.80;99.90
22471;DHT22;11402;51.374;6.594;2023-06-26T02:31:40;20.90;99.90
22471;DHT22;11402;51.374;6.594;2023-06-26T02:34:06;20.70;99.90
22471;DHT22;11402;51.374;6.594;2023-06-26T02:36:31;20.70;99.90
22471;DHT22;11402;51.374;6.594;2023-06-26T02:38:57;20.70;99.90
22471;DHT22;11402;51.374;6.594;2023-06-26T02:41:22;20.70;99.90
22471;DHT22;11402;51.374;6.594;2023-06-26T02:43:48;20.50;99.90
22471;DHT22;11402;51.374;6.594;2023-06-26T02:46:13;20.60;99.90
22471;DHT22;11402;51.374;6.594;2023-06-26T02:48:39;20.60;99.90
22471;DHT22;11402;51.374;6.594;2023-06-26T02:51:05;20.80;99.90
22471;DHT22;11402;51.374;6.594;2023-06-26T02:53:31;20.90;99.90
22471;DHT22;11402;51.374;6.594;2023-06-26T02:55:56;20.90;99.90
22471;DHT22;11402;51.374;6.594;2023-06-26T02:58:22;20.90;99.90
22471;DHT22;11402;51.374;6.594;2023-06-26T03:00:47;21.00;99.90
22471;DHT22;11402;51.374;6.594;2023-06-26T03:03:13;21.10;99.90
22471;DHT22;11402;51.374;6.594;2023-06-26T03:05:39;21.10;99.90
22471;DHT22;11402;51.374;6.594;2023-06-26T03:08:05;21.10;99.90
22471;DHT22;11402;51.374;6.594;2023-06-26T03:10:30;21.20;99.90
22471;DHT22;11402;51.374;6.594;2023-06-26T03:12:56;21.10;99.90
22471;DHT22;11402;51.374;6.594;2023-06-26T03:15:21;21.20;99.90
22471;DHT22;11402;51.374;6.594;2023-06-26T03:17:47;21.30;99.90
22471;DHT22;11402;51.374;6.594;2023-06-26T03:20:12;21.20;99.90
22471;DHT22;11402;51.374;6.594;2023-06-26T03:22:38;21.30;99.90
22471;DHT22;11402;51.374;6.594;2023-06-26T03:25:04;21.30;99.90
22471;DHT22;11402;51.374;6.594;2023-06-26T03:27:30;21.30;99.90
22471;DHT22;11402;51.374;6.594;2023-06-26T03:29:55;21.30;99.90
22471;DHT22;11402;51.374;6.594;2023-06-26T03:32:21;21.20;99.90
22471;DHT22;11402;51.374;6.594;2023-06-26T03:34:47;21.20;99.90
22471;DHT22;11402;51.374;6.594;2023-06-26T03:37:12;21.00;99.90
22471;DHT22;11402;51.374;6.594;2023-06-26T03:39:38;21.10;99.90
22471;DHT22;11402;51.374;6.594;2023-06-26T03:42:04;21.10;99.90
22471;DHT22;11402;51.374;6.594;2023-06-26T03:44:29;21.00;99.90
22471;DHT22;11402;51.374;6.594;2023-06-26T03:46:55;21.20;99.90
22471;DHT22;11402;51.374;6.594;2023-06-26T03:49:20;21.20;99.90
22471;DHT22;11402;51.374;6.594;2023-06-26T03:51:46;21.30;99.90
22471;DHT22;11402;51.374;6.594;2023-06-26T03:54:11;21.40;99.90
22471;DHT22;11402;51.374;6.594;2023-06-26T03:56:37;21.30;99.90
22471;DHT22;11402;51.374;6.594;2023-06-26T03:59:03;21.30;99.90
22471;DHT22;11402;51.374;6.594;2023-06-26T04:01:29;21.30;99.90
22471;DHT22;11402;51.374;6.594;2023-06-26T04:03:54;21.20;99.90
22471;DHT22;11402;51.374;6.594;2023-06-26T04:06:20;21.30;99.90
22471;DHT22;11402;51.374;6.594;2023-06-26T04:08:46;21.40;99.90
22471;DHT22;11402;51.374;6.594;2023-06-26T04:11:11;21.50;99.90
22471;DHT22;11402;51.374;6.594;2023-06-26T04:13:37;21.50;99.90
22471;DHT22;11402;51.374;6.594;2023-06-26T04:16:02;21.60;99.90
22471;DHT22;11402;51.374;6.594;2023-06-26T04:18:29;21.60;99.90
22471;DHT22;11402;51.374;6.594;2023-06-26T04:21:06;21.70;99.90
22471;DHT22;11402;51.374;6.594;2023-06-26T04:23:32;21.70;99.90
22471;DHT22;11402;51.374;6.594;2023-06-26T04:25:58;21.60;99.90
22471;DHT22;11402;51.374;6.594;2023-06-26T04:28:24;21.60;99.90
22471;DHT22;11402;51.374;6.594;2023-06-26T04:30:50;21.60;99.90
22471;DHT22;11402;51.374;6.594;2023-06-26T04:33:15;21.70;99.90
22471;DHT22;11402;51.374;6.594;2023-06-26T04:35:41;21.60;99.90
22471;DHT22;11402;51.374;6.594;2023-06-26T04:38:10;21.50;99.90
22471;DHT22;11402;51.374;6.594;2023-06-26T04:40:36;21.50;99.90
22471;DHT22;11402;51.374;6.594;2023-06-26T04:43:02;21.60;99.90
22471;DHT22;11402;51.374;6.594;2023-06-26T04:45:27;21.60;99.90
22471;DHT22;11402;51.374;6.594;2023-06-26T04:47:53;21.60;99.90
22471;DHT22;11402;51.374;6.594;2023-06-26T04:50:18;21.60;99.90
22471;DHT22;11402;51.374;6.594;2023-06-26T04:52:44;21.60;99.90
22471;DHT22;11402;51.374;6.594;2023-06-26T04:55:10;21.60;99.90
22471;DHT22;11402;51.374;6.594;2023-06-26T04:57:35;21.60;99.90
22471;DHT22;11402;51.374;6.594;2023-06-26T05:00:02;21.70;99.90
22471;DHT22;11402;51.374;6.594;2023-06-26T05:02:27;21.70;99.90
22471;DHT22;11402;51.374;6.594;2023-06-26T05:04:54;21.60;99.90
22471;DHT22;11402;51.374;6.594;2023-06-26T05:07:20;21.60;99.90
22471;DHT22;11402;51.374;6.594;2023-06-26T05:09:45;21.40;99.90
22471;DHT22;11402;51.374;6.594;2023-06-26T05:12:11;21.30;99.90
22471;DHT22;11402;51.374;6.594;2023-06-26T05:14:38;21.40;99.90
22471;DHT22;11402;51.374;6.594;2023-06-26T05:17:04;21.50;99.90
22471;DHT22;11402;51.374;6.594;2023-06-26T05:19:29;21.60;99.90
22471;DHT22;11402;51.374;6.594;2023-06-26T05:21:55;21.60;99.90
22471;DHT22;11402;51.374;6.594;2023-06-26T05:24:22;21.70;99.90
22471;DHT22;11402;51.374;6.594;2023-06-26T05:26:48;21.60;99.90
22471;DHT22;11402;51.374;6.594;2023-06-26T05:29:14;21.50;99.90
22471;DHT22;11402;51.374;6.594;2023-06-26T05:31:41;21.60;99.90
22471;DHT22;11402;51.374;6.594;2023-06-26T05:34:07;21.60;99.90
22471;DHT22;11402;51.374;6.594;2023-06-26T05:36:36;21.70;99.90
22471;DHT22;11402;51.374;6.594;2023-06-26T05:39:02;21.60;99.90
22471;DHT22;11402;51.374;6.594;2023-06-26T05:41:28;21.70;99.90
22471;DHT22;11402;51.374;6.594;2023-06-26T05:43:53;21.70;99.90
22471;DHT22;11402;51.374;6.594;2023-06-26T05:46:19;21.70;99.90
22471;DHT22;11402;51.374;6.594;2023-06-26T05:48:45;21.80;99.90
22471;DHT22;11402;51.374;6.594;2023-06-26T05:51:11;21.70;99.90
22471;DHT22;11402;51.374;6.594;2023-06-26T05:53:37;21.70;99.90
22471;DHT22;11402;51.374;6.594;2023-06-26T05:56:03;21.80;99.90
22471;DHT22;11402;51.374;6.594;2023-06-26T05:58:28;21.80;99.90
22471;DHT22;11402;51.374;6.594;2023-06-26T06:00:55;21.80;99.90
22471;DHT22;11402;51.374;6.594;2023-06-26T06:03:21;21.80;99.90
22471;DHT22;11402;51.374;6.594;2023-06-26T06:05:46;21.80;99.90
22471;DHT22;11402;51.374;6.594;2023-06-26T06:08:12;21.70;99.90
22471;DHT22;11402;51.374;6.594;2023-06-26T06:10:37;21.70;99.90
22471;DHT22;11402;51.374;6.594;2023-06-26T06:13:03;21.80;99.90
22471;DHT22;11402;51.374;6.594;2023-06-26T06:15:29;21.80;99.90
22471;DHT22;11402;51.374;6.594;2023-06-26T06:17:54;21.90;99.90
22471;DHT22;11402;51.374;6.594;2023-06-26T06:20:20;21.80;99.90
22471;DHT22;11402;51.374;6.594;2023-06-26T06:22:46;21.90;99.90
22471;DHT22;11402;51.374;6.594;2023-06-26T06:25:11;22.10;99.90
22471;DHT22;11402;51.374;6.594;2023-06-26T06:27:37;22.10;99.90
22471;DHT22;11402;51.374;6.594;2023-06-26T06:30:03;22.20;99.90
22471;DHT22;11402;51.374;6.594;2023-06-26T06:32:28;22.20;99.90
22471;DHT22;11402;51.374;6.594;2023-06-26T06:34:54;22.10;99.90
22471;DHT22;11402;51.374;6.594;2023-06-26T06:37:19;22.30;99.90
22471;DHT22;11402;51.374;6.594;2023-06-26T06:39:45;22.30;99.90
22471;DHT22;11402;51.374;6.594;2023-06-26T06:42:10;22.10;99.90
22471;DHT22;11402;51.374;6.594;2023-06-26T06:44:36;22.00;99.90
22471;DHT22;11402;51.374;6.594;2023-06-26T06:47:01;21.90;99.90
22471;DHT22;11402;51.374;6.594;2023-06-26T06:49:27;21.80;99.90
22471;DHT22;11402;51.374;6.594;2023-06-26T06:51:53;21.80;99.90
22471;DHT22;11402;51.374;6.594;2023-06-26T06:54:18;21.80;99.90
22471;DHT22;11402;51.374;6.594;2023-06-26T06:56:45;22.00;99.90
22471;DHT22;11402;51.374;6.594;2023-06-26T06:59:10;22.10;99.90
22471;DHT22;11402;51.374;6.594;2023-06-26T07:01:36;22.20;99.90
22471;DHT22;11402;51.374;6.594;2023-06-26T07:04:01;22.20;99.90
22471;DHT22;11402;51.374;6.594;2023-06-26T07:06:29;22.20;99.90
22471;DHT22;11402;51.374;6.594;2023-06-26T07:08:54;22.30;99.90
22471;DHT22;11402;51.374;6.594;2023-06-26T07:11:20;22.60;99.90
22471;DHT22;11402;51.374;6.594;2023-06-26T07:13:46;22.60;99.90
22471;DHT22;11402;51.374;6.594;2023-06-26T07:16:11;22.50;99.90
22471;DHT22;11402;51.374;6.594;2023-06-26T07:18:38;22.60;99.90
22471;DHT22;11402;51.374;6.594;2023-06-26T07:21:04;22.50;99.90
22471;DHT22;11402;51.374;6.594;2023-06-26T07:23:29;22.50;99.90
22471;DHT22;11402;51.374;6.594;2023-06-26T07:25:55;22.60;99.90
22471;DHT22;11402;51.374;6.594;2023-06-26T07:28:21;22.60;99.90
22471;DHT22;11402;51.374;6.594;2023-06-26T07:30:46;22.50;99.90
22471;DHT22;11402;51.374;6.594;2023-06-26T07:33:12;22.50;99.90
22471;DHT22;11402;51.374;6.594;2023-06-26T07:35:38;22.60;99.90
22471;DHT22;11402;51.374;6.594;2023-06-26T07:38:03;22.60;99.90
22471;DHT22;11402;51.374;6.594;2023-06-26T07:40:29;22.50;99.90
22471;DHT22;11402;51.374;6.594;2023-06-26T07:42:54;22.30;99.90
22471;DHT22;11402;51.374;6.594;2023-06-26T07:45:20;22.20;99.90
22471;DHT22;11402;51.374;6.594;2023-06-26T07:47:46;22.30;99.90
22471;DHT22;11402;51.374;6.594;2023-06-26T07:50:12;22.50;99.90
22471;DHT22;11402;51.374;6.594;2023-06-26T07:52:37;22.70;99.90
22471;DHT22;11402;51.374;6.594;2023-06-26T07:55:03;22.70;99.90
22471;DHT22;11402;51.374;6.594;2023-06-26T07:57:29;22.60;99.90
22471;DHT22;11402;51.374;6.594;2023-06-26T07:59:55;22.60;99.90
22471;DHT22;11402;51.374;6.594;2023-06-26T08:02:21;22.60;99.90
22471;DHT22;11402;51.374;6.594;2023-06-26T08:04:47;22.60;99.90
22471;DHT22;11402;51.374;6.594;2023-06-26T08:07:12;22.60;99.90
22471;DHT22;11402;51.374;6.594;2023-06-26T08:09:39;22.60;99.90
22471;DHT22;11402;51.374;6.594;2023-06-26T08:12:05;22.40;99.90
22471;DHT22;11402;51.374;6.594;2023-06-26T08:14:30;22.40;99.90
22471;DHT22;11402;51.374;6.594;2023-06-26T08:16:57;22.70;99.90
22471;DHT22;11402;51.374;6.594;2023-06-26T08:19:24;22.60;99.90
22471;DHT22;11402;51.374;6.594;2023-06-26T08:21:50;22.40;99.90
22471;DHT22;11402;51.374;6.594;2023-06-26T08:24:16;22.60;99.90
22471;DHT22;11402;51.374;6.594;2023-06-26T08:26:45;22.90;99.90
22471;DHT22;11402;51.374;6.594;2023-06-26T08:29:11;22.90;99.90
22471;DHT22;11402;51.374;6.594;2023-06-26T08:31:37;22.90;99.90
22471;DHT22;11402;51.374;6.594;2023-06-26T08:34:03;22.90;99.90
22471;DHT22;11402;51.374;6.594;2023-06-26T08:36:30;22.90;99.90
22471;DHT22;11402;51.374;6.594;2023-06-26T08:38:55;22.90;99.90
22471;DHT22;11402;51.374;6.594;2023-06-26T08:41:21;23.00;99.90
22471;DHT22;11402;51.374;6.594;2023-06-26T08:43:47;23.10;99.90
22471;DHT22;11402;51.374;6.594;2023-06-26T08:46:14;23.30;99.90
22471;DHT22;11402;51.374;6.594;2023-06-26T08:48:44;23.40;99.90
22471;DHT22;11402;51.374;6.594;2023-06-26T08:51:16;23.30;99.90
22471;DHT22;11402;51.374;6.594;2023-06-26T08:53:43;23.30;99.90
22471;DHT22;11402;51.374;6.594;2023-06-26T08:56:15;23.20;99.90
22471;DHT22;11402;51.374;6.594;2023-06-26T08:58:42;23.20;99.90
22471;DHT22;11402;51.374;6.594;2023-06-26T09:01:08;23.10;99.90
22471;DHT22;11402;51.374;6.594;2023-06-26T09:03:35;23.30;99.90
22471;DHT22;11402;51.374;6.594;2023-06-26T09:06:00;23.30;99.90
22471;DHT22;11402;51.374;6.594;2023-06-26T09:08:26;23.30;99.90
22471;DHT22;11402;51.374;6.594;2023-06-26T09:10:52;23.30;99.90
22471;DHT22;11402;51.374;6.594;2023-06-26T09:13:18;23.20;99.90
22471;DHT22;11402;51.374;6.594;2023-06-26T09:15:45;23.40;99.90
22471;DHT22;11402;51.374;6.594;2023-06-26T09:18:11;23.50;99.90
22471;DHT22;11402;51.374;6.594;2023-06-26T09:20:37;23.50;99.90
22471;DHT22;11402;51.374;6.594;2023-06-26T09:23:03;23.50;99.90
22471;DHT22;11402;51.374;6.594;2023-06-26T09:25:29;23.40;99.90
22471;DHT22;11402;51.374;6.594;2023-06-26T09:27:56;23.50;99.90
22471;DHT22;11402;51.374;6.594;2023-06-26T09:30:22;23.80;99.90
22471;DHT22;11402;51.374;6.594;2023-06-26T09:32:48;23.70;99.90
22471;DHT22;11402;51.374;6.594;2023-06-26T09:35:16;23.70;99.90
22471;DHT22;11402;51.374;6.594;2023-06-26T09:37:42;23.70;99.90
22471;DHT22;11402;51.374;6.594;2023-06-26T09:40:08;23.70;99.90
22471;DHT22;11402;51.374;6.594;2023-06-26T09:42:34;23.70;99.90
22471;DHT22;11402;51.374;6.594;2023-06-26T09:45:00;23.70;99.90
22471;DHT22;11402;51.374;6.594;2023-06-26T09:47:25;23.60;99.90
22471;DHT22;11402;51.374;6.594;2023-06-26T09:49:51;23.80;99.90
22471;DHT22;11402;51.374;6.594;2023-06-26T09:52:18;23.70;99.90
22471;DHT22;11402;51.374;6.594;2023-06-26T09:54:45;23.50;99.90
22471;DHT22;11402;51.374;6.594;2023-06-26T09:57:13;23.50;99.90
22471;DHT22;11402;51.374;6.594;2023-06-26T09:59:39;23.50;99.90
22471;DHT22;11402;51.374;6.594;2023-06-26T10:02:06;23.60;99.90
22471;DHT22;11402;51.374;6.594;2023-06-26T10:04:32;23.70;99.90
22471;DHT22;11402;51.374;6.594;2023-06-26T10:07:01;23.50;99.90
22471;DHT22;11402;51.374;6.594;2023-06-26T10:09:27;23.30;99.90
22471;DHT22;11402;51.374;6.594;2023-06-26T10:12:03;23.30;99.90
22471;DHT22;11402;51.374;6.594;2023-06-26T10:14:35;23.40;99.90
22471;DHT22;11402;51.374;6.594;2023-06-26T10:17:07;23.70;99.90
22471;DHT22;11402;51.374;6.594;2023-06-26T10:19:35;23.80;99.90
22471;DHT22;11402;51.374;6.594;2023-06-26T10:22:03;23.90;99.90
22471;DHT22;11402;51.374;6.594;2023-06-26T10:24:32;23.70;99.90
22471;DHT22;11402;51.374;6.594;2023-06-26T10:27:25;23.40;99.90
22471;DHT22;11402;51.374;6.594;2023-06-26T10:29:55;23.30;99.90
22471;DHT22;11402;51.374;6.594;2023-06-26T10:32:24;23.50;99.90
22471;DHT22;11402;51.374;6.594;2023-06-26T10:34:51;23.60;99.90
22471;DHT22;11402;51.374;6.594;2023-06-26T10:37:17;23.70;99.90
22471;DHT22;11402;51.374;6.594;2023-06-26T10:39:50;23.50;99.90
22471;DHT22;11402;51.374;6.594;2023-06-26T10:42:17;23.40;99.90
22471;DHT22;11402;51.374;6.594;2023-06-26T10:44:45;23.30;99.90
22471;DHT22;11402;51.374;6.594;2023-06-26T10:47:28;23.50;99.90
22471;DHT22;11402;51.374;6.594;2023-06-26T10:49:54;23.50;99.90
22471;DHT22;11402;51.374;6.594;2023-06-26T10:52:20;23.80;99.90
22471;DHT22;11402;51.374;6.594;2023-06-26T10:54:45;23.80;99.90
22471;DHT22;11402;51.374;6.594;2023-06-26T10:57:11;24.00;99.90
22471;DHT22;11402;51.374;6.594;2023-06-26T10:59:48;24.10;99.90
22471;DHT22;11402;51.374;6.594;2023-06-26T11:02:14;24.10;99.90
22471;DHT22;11402;51.374;6.594;2023-06-26T11:04:49;24.30;99.90
22471;DHT22;11402;51.374;6.594;2023-06-26T11:07:21;24.20;99.90
22471;DHT22;11402;51.374;6.594;2023-06-26T11:15:15;24.30;99.90
22471;DHT22;11402;51.374;6.594;2023-06-26T11:17:43;24.30;99.90
22471;DHT22;11402;51.374;6.594;2023-06-26T11:20:10;24.30;99.90
22471;DHT22;11402;51.374;6.594;2023-06-26T11:22:38;24.40;99.90
22471;DHT22;11402;51.374;6.594;2023-06-26T11:25:04;24.20;99.90
22471;DHT22;11402;51.374;6.594;2023-06-26T11:27:43;24.10;99.90
22471;DHT22;11402;51.374;6.594;2023-06-26T11:30:11;23.90;99.90
22471;DHT22;11402;51.374;6.594;2023-06-26T11:32:40;23.70;99.90
22471;DHT22;11402;51.374;6.594;2023-06-26T11:35:06;23.80;99.90
22471;DHT22;11402;51.374;6.594;2023-06-26T11:37:32;23.60;99.90
22471;DHT22;11402;51.374;6.594;2023-06-26T11:39:58;23.60;99.90
22471;DHT22;11402;51.374;6.594;2023-06-26T11:42:24;23.80;99.90
22471;DHT22;11402;51.374;6.594;2023-06-26T11:44:53;23.90;99.90
22471;DHT22;11402;51.374;6.594;2023-06-26T11:47:20;23.70;99.90
22471;DHT22;11402;51.374;6.594;2023-06-26T11:49:48;23.50;99.90
22471;DHT22;11402;51.374;6.594;2023-06-26T11:52:14;23.50;99.90
22471;DHT22;11402;51.374;6.594;2023-06-26T11:54:41;23.70;99.90
22471;DHT22;11402;51.374;6.594;2023-06-26T11:57:07;24.00;99.90
22471;DHT22;11402;51.374;6.594;2023-06-26T11:59:39;24.00;99.90
22471;DHT22;11402;51.374;6.594;2023-06-26T12:02:09;23.90;99.90
22471;DHT22;11402;51.374;6.594;2023-06-26T12:04:37;23.80;99.90
22471;DHT22;11402;51.374;6.594;2023-06-26T12:07:04;23.90;99.90
22471;DHT22;11402;51.374;6.594;2023-06-26T12:09:32;24.20;99.90
22471;DHT22;11402;51.374;6.594;2023-06-26T12:11:59;24.30;99.90
22471;DHT22;11402;51.374;6.594;2023-06-26T12:14:26;24.20;99.90
22471;DHT22;11402;51.374;6.594;2023-06-26T12:16:54;24.20;99.90
22471;DHT22;11402;51.374;6.594;2023-06-26T12:19:25;24.20;99.90
22471;DHT22;11402;51.374;6.594;2023-06-26T12:21:53;24.30;99.90
22471;DHT22;11402;51.374;6.594;2023-06-26T12:24:22;24.40;99.90
22471;DHT22;11402;51.374;6.594;2023-06-26T12:26:51;24.20;99.90
22471;DHT22;11402;51.374;6.594;2023-06-26T12:29:18;24.20;98.50
22471;DHT22;11402;51.374;6.594;2023-06-26T12:31:53;24.10;98.60
22471;DHT22;11402;51.374;6.594;2023-06-26T12:34:33;24.40;99.90
22471;DHT22;11402;51.374;6.594;2023-06-26T12:37:06;24.40;99.90
22471;DHT22;11402;51.374;6.594;2023-06-26T12:39:52;24.40;99.90
22471;DHT22;11402;51.374;6.594;2023-06-26T12:42:36;24.20;96.30
22471;DHT22;11402;51.374;6.594;2023-06-26T12:45:11;23.70;97.30
22471;DHT22;11402;51.374;6.594;2023-06-26T12:47:36;23.80;95.50
22471;DHT22;11402;51.374;6.594;2023-06-26T12:50:05;24.20;99.00
22471;DHT22;11402;51.374;6.594;2023-06-26T12:52:31;24.50;99.50
22471;DHT22;11402;51.374;6.594;2023-06-26T12:54:57;24.30;96.90
22471;DHT22;11402;51.374;6.594;2023-06-26T12:57:22;24.30;98.10
22471;DHT22;11402;51.374;6.594;2023-06-26T12:59:48;24.40;96.80
22471;DHT22;11402;51.374;6.594;2023-06-26T13:02:14;24.10;95.60
22471;DHT22;11402;51.374;6.594;2023-06-26T13:04:40;23.90;95.30
22471;DHT22;11402;51.374;6.594;2023-06-26T13:07:07;23.70;97.80
22471;DHT22;11402;51.374;6.594;2023-06-26T13:09:33;23.70;94.20
22471;DHT22;11402;51.374;6.594;2023-06-26T13:12:00;23.70;93.80
22471;DHT22;11402;51.374;6.594;2023-06-26T13:14:25;23.80;94.70
22471;DHT22;11402;51.374;6.594;2023-06-26T13:16:51;23.80;96.50
22471;DHT22;11402;51.374;6.594;2023-06-26T13:19:17;23.70;96.10
22471;DHT22;11402;51.374;6.594;2023-06-26T13:21:42;23.80;94.40
22471;DHT22;11402;51.374;6.594;2023-06-26T13:24:08;23.90;95.40
22471;DHT22;11402;51.374;6.594;2023-06-26T13:26:34;23.90;94.00
22471;DHT22;11402;51.374;6.594;2023-06-26T13:29:00;24.00;92.90
22471;DHT22;11402;51.374;6.594;2023-06-26T13:31:26;24.00;91.20
22471;DHT22;11402;51.374;6.594;2023-06-26T13:33:52;23.80;85.50
22471;DHT22;11402;51.374;6.594;2023-06-26T13:36:18;23.80;90.80
22471;DHT22;11402;51.374;6.594;2023-06-26T13:38:44;23.90;89.90
22471;DHT22;11402;51.374;6.594;2023-06-26T13:41:10;23.90;91.20
22471;DHT22;11402;51.374;6.594;2023-06-26T13:43:36;23.90;92.10
22471;DHT22;11402;51.374;6.594;2023-06-26T13:46:02;23.90;91.60
22471;DHT22;11402;51.374;6.594;2023-06-26T13:48:28;23.70;90.20
22471;DHT22;11402;51.374;6.594;2023-06-26T13:50:54;23.50;91.60
22471;DHT22;11402;51.374;6.594;2023-06-26T13:53:20;23.50;92.80
22471;DHT22;11402;51.374;6.594;2023-06-26T13:55:46;23.50;92.50
22471;DHT22;11402;51.374;6.594;2023-06-26T13:58:11;23.60;91.90
22471;DHT22;11402;51.374;6.594;2023-06-26T14:00:38;23.70;92.70
22471;DHT22;11402;51.374;6.594;2023-06-26T14:03:06;23.90;92.80
22471;DHT22;11402;51.374;6.594;2023-06-26T14:05:36;23.80;92.00
22471;DHT22;11402;51.374;6.594;2023-06-26T14:08:03;23.70;90.20
22471;DHT22;11402;51.374;6.594;2023-06-26T14:10:30;23.70;91.00
22471;DHT22;11402;51.374;6.594;2023-06-26T14:12:56;23.90;94.90
22471;DHT22;11402;51.374;6.594;2023-06-26T14:15:22;24.00;95.50
22471;DHT22;11402;51.374;6.594;2023-06-26T14:17:48;24.10;96.20
22471;DHT22;11402;51.374;6.594;2023-06-26T14:20:15;23.90;91.10
22471;DHT22;11402;51.374;6.594;2023-06-26T14:22:42;23.80;92.80
22471;DHT22;11402;51.374;6.594;2023-06-26T14:25:09;23.90;93.40
22471;DHT22;11402;51.374;6.594;2023-06-26T14:27:35;23.90;95.30
22471;DHT22;11402;51.374;6.594;2023-06-26T14:30:03;23.70;94.10
22471;DHT22;11402;51.374;6.594;2023-06-26T14:32:29;23.60;93.80
22471;DHT22;11402;51.374;6.594;2023-06-26T14:37:21;23.50;93.90
22471;DHT22;11402;51.374;6.594;2023-06-26T14:39:46;23.80;95.60
22471;DHT22;11402;51.374;6.594;2023-06-26T14:42:12;23.80;92.60
22471;DHT22;11402;51.374;6.594;2023-06-26T14:44:38;23.70;92.60
22471;DHT22;11402;51.374;6.594;2023-06-26T14:47:04;23.80;92.80
22471;DHT22;11402;51.374;6.594;2023-06-26T14:49:30;23.90;93.70
22471;DHT22;11402;51.374;6.594;2023-06-26T14:51:56;23.90;91.30
22471;DHT22;11402;51.374;6.594;2023-06-26T14:54:21;23.90;93.30
22471;DHT22;11402;51.374;6.594;2023-06-26T14:56:47;23.80;92.40
22471;DHT22;11402;51.374;6.594;2023-06-26T14:59:12;23.70;91.60
22471;DHT22;11402;51.374;6.594;2023-06-26T15:01:41;23.70;90.40
22471;DHT22;11402;51.374;6.594;2023-06-26T15:04:07;23.80;86.00
22471;DHT22;11402;51.374;6.594;2023-06-26T15:06:32;23.70;89.10
22471;DHT22;11402;51.374;6.594;2023-06-26T15:08:58;23.70;91.00
22471;DHT22;11402;51.374;6.594;2023-06-26T15:11:24;23.50;90.90
22471;DHT22;11402;51.374;6.594;2023-06-26T15:13:50;23.50;91.90
22471;DHT22;11402;51.374;6.594;2023-06-26T15:16:16;23.50;92.20
22471;DHT22;11402;51.374;6.594;2023-06-26T15:18:41;23.50;88.90
22471;DHT22;11402;51.374;6.594;2023-06-26T15:21:07;23.30;86.00
22471;DHT22;11402;51.374;6.594;2023-06-26T15:23:33;23.20;86.70
22471;DHT22;11402;51.374;6.594;2023-06-26T15:25:59;23.20;89.40
22471;DHT22;11402;51.374;6.594;2023-06-26T15:28:25;23.50;91.30
22471;DHT22;11402;51.374;6.594;2023-06-26T15:30:50;23.70;92.00
22471;DHT22;11402;51.374;6.594;2023-06-26T15:33:16;23.70;90.50
22471;DHT22;11402;51.374;6.594;2023-06-26T15:35:41;23.70;89.00
22471;DHT22;11402;51.374;6.594;2023-06-26T15:38:07;23.50;91.10
22471;DHT22;11402;51.374;6.594;2023-06-26T15:40:33;23.50;89.10
22471;DHT22;11402;51.374;6.594;2023-06-26T15:42:58;23.30;90.50
22471;DHT22;11402;51.374;6.594;2023-06-26T15:45:24;23.40;91.20